sensor_id;sensor_type;location;lat;lon;timestamp;pressure;altitude;pressure_sealevel;temperature;humidity
74921;BME280;63483;47.384;8.860;2024-01-07T00:01:54;93819.69;;;-0.09;54.05
74921;BME280;63483;47.384;8.860;2024-01-07T00:04:20;93811.16;;;-0.10;54.17
74921;BME280;63483;47.384;8.860;2024-01-07T00:06:46;93813.47;;;-0.07;53.49
74921;BME280;63483;47.384;8.860;2024-01-07T00:09:11;93821.44;;;-0.00;54.56
74921;BME280;63483;47.384;8.860;2024-01-07T00:11:41;93811.84;;;0.02;54.01
74921;BME280;63483;47.384;8.860;2024-01-07T00:14:07;93813.16;;;0.06;54.03
74921;BME280;63483;47.384;8.860;2024-01-07T00:16:32;93811.28;;;0.08;53.60
74921;BME280;63483;47.384;8.860;2024-01-07T00:18:57;93816.44;;;0.08;53.56
74921;BME280;63483;47.384;8.860;2024-01-07T00:21:23;93814.53;;;0.10;53.90
74921;BME280;63483;47.384;8.860;2024-01-07T00:23:49;93813.88;;;0.08;53.33
74921;BME280;63483;47.384;8.860;2024-01-07T00:26:15;93815.22;;;0.12;53.81
74921;BME280;63483;47.384;8.860;2024-01-07T00:28:40;93807.78;;;0.09;53.68
74921;BME280;63483;47.384;8.860;2024-01-07T00:31:05;93814.53;;;0.10;53.63
74921;BME280;63483;47.384;8.860;2024-01-07T00:33:34;93809.38;;;0.10;53.92
74921;BME280;63483;47.384;8.860;2024-01-07T00:36:00;93816.44;;;0.08;53.99
74921;BME280;63483;47.384;8.860;2024-01-07T00:38:25;93807.78;;;0.09;53.34
74921;BME280;63483;47.384;8.860;2024-01-07T00:40:50;93815.88;;;0.14;53.61
74921;BME280;63483;47.384;8.860;2024-01-07T00:43:16;93813.31;;;0.14;53.79
74921;BME280;63483;47.384;8.860;2024-01-07T00:45:41;93816.97;;;0.12;53.95
74921;BME280;63483;47.384;8.860;2024-01-07T00:48:06;93819.69;;;0.10;53.71
74921;BME280;63483;47.384;8.860;2024-01-07T00:50:32;93821.44;;;0.10;54.21
74921;BME280;63483;47.384;8.860;2024-01-07T00:52:57;93811.84;;;0.02;53.53
74921;BME280;63483;47.384;8.860;2024-01-07T00:55:22;93814.13;;;0.05;53.55
74921;BME280;63483;47.384;8.860;2024-01-07T00:57:49;93818.31;;;0.06;53.78
74921;BME280;63483;47.384;8.860;2024-01-07T01:00:14;93822.25;;;0.10;53.84
74921;BME280;63483;47.384;8.860;2024-01-07T01:02:40;93814.94;;;0.06;53.89
74921;BME280;63483;47.384;8.860;2024-01-07T01:05:05;93825.81;;;0.09;54.27
74921;BME280;63483;47.384;8.860;2024-01-07T01:07:31;93816.44;;;0.08;53.70
74921;BME280;63483;47.384;8.860;2024-01-07T01:09:58;93826.19;;;0.14;53.69
74921;BME280;63483;47.384;8.860;2024-01-07T01:12:23;93825.38;;;0.04;53.63
74921;BME280;63483;47.384;8.860;2024-01-07T01:14:48;93819.94;;;-0.12;53.20
74921;BME280;63483;47.384;8.860;2024-01-07T01:17:14;93819.97;;;-0.73;45.90
74921;BME280;63483;47.384;8.860;2024-01-07T01:19:39;93820.19;;;-1.16;46.00
74921;BME280;63483;47.384;8.860;2024-01-07T01:22:05;93826.53;;;-1.42;46.55
74921;BME280;63483;47.384;8.860;2024-01-07T01:24:30;93827.53;;;-1.33;47.63
74921;BME280;63483;47.384;8.860;2024-01-07T01:26:55;93827.78;;;-1.57;44.44
74921;BME280;63483;47.384;8.860;2024-01-07T01:29:21;93828.47;;;-1.34;49.95
74921;BME280;63483;47.384;8.860;2024-01-07T01:31:46;93833.78;;;-1.47;57.94
74921;BME280;63483;47.384;8.860;2024-01-07T01:34:11;93837.94;;;-1.77;52.33
74921;BME280;63483;47.384;8.860;2024-01-07T01:36:36;93834.44;;;-2.08;51.19
74921;BME280;63483;47.384;8.860;2024-01-07T01:39:02;93831.66;;;-2.16;51.55
74921;BME280;63483;47.384;8.860;2024-01-07T01:41:28;93838.03;;;-2.43;50.92
74921;BME280;63483;47.384;8.860;2024-01-07T01:43:57;93826.53;;;-2.16;53.15
74921;BME280;63483;47.384;8.860;2024-01-07T01:46:23;93834.16;;;-2.26;52.12
74921;BME280;63483;47.384;8.860;2024-01-07T01:48:49;93827.75;;;-2.32;50.84
74921;BME280;63483;47.384;8.860;2024-01-07T01:51:14;93828.25;;;-2.38;49.07
74921;BME280;63483;47.384;8.860;2024-01-07T01:53:39;93826.53;;;-2.16;54.05
74921;BME280;63483;47.384;8.860;2024-01-07T01:56:05;93827.13;;;-2.13;49.95
74921;BME280;63483;47.384;8.860;2024-01-07T01:58:32;93839.34;;;-2.05;51.56
74921;BME280;63483;47.384;8.860;2024-01-07T02:00:58;93830.03;;;-1.85;53.44
74921;BME280;63483;47.384;8.860;2024-01-07T02:03:23;93839.47;;;-1.85;50.28
74921;BME280;63483;47.384;8.860;2024-01-07T02:05:50;93830.84;;;-1.84;48.82
74921;BME280;63483;47.384;8.860;2024-01-07T02:08:17;93830.84;;;-1.84;47.13
74921;BME280;63483;47.384;8.860;2024-01-07T02:10:43;93832.50;;;-1.83;46.81
74921;BME280;63483;47.384;8.860;2024-01-07T02:13:10;93843.31;;;-1.80;48.60
74921;BME280;63483;47.384;8.860;2024-01-07T02:15:35;93830.72;;;-1.62;50.38
74921;BME280;63483;47.384;8.860;2024-01-07T02:18:01;93836.69;;;-1.40;51.67
74921;BME280;63483;47.384;8.860;2024-01-07T02:20:26;93835.03;;;-1.20;52.94
74921;BME280;63483;47.384;8.860;2024-01-07T02:22:51;93837.94;;;-1.04;53.33
74921;BME280;63483;47.384;8.860;2024-01-07T02:25:17;93833.56;;;-0.92;53.81
74921;BME280;63483;47.384;8.860;2024-01-07T02:27:42;93837.25;;;-0.85;52.59
74921;BME280;63483;47.384;8.860;2024-01-07T02:30:08;93832.94;;;-0.74;53.67
74921;BME280;63483;47.384;8.860;2024-01-07T02:32:33;93833.25;;;-0.68;53.66
74921;BME280;63483;47.384;8.860;2024-01-07T02:35:01;93839.63;;;-0.62;55.92
74921;BME280;63483;47.384;8.860;2024-01-07T02:37:26;93835.56;;;-0.55;54.61
74921;BME280;63483;47.384;8.860;2024-01-07T02:39:52;93835.06;;;-0.48;54.55
74921;BME280;63483;47.384;8.860;2024-01-07T02:42:17;93826.97;;;-0.44;54.78
74921;BME280;63483;47.384;8.860;2024-01-07T02:44:42;93828.06;;;-0.37;54.71
74921;BME280;63483;47.384;8.860;2024-01-07T02:47:08;93825.75;;;-0.40;55.01
74921;BME280;63483;47.384;8.860;2024-01-07T02:49:33;93832.63;;;-0.40;55.10
74921;BME280;63483;47.384;8.860;2024-01-07T02:51:59;93830.75;;;-0.38;55.17
74921;BME280;63483;47.384;8.860;2024-01-07T02:54:24;93826.81;;;-0.33;55.04
74921;BME280;63483;47.384;8.860;2024-01-07T02:56:49;93834.28;;;-0.29;54.11
74921;BME280;63483;47.384;8.860;2024-01-07T02:59:15;93829.97;;;-0.29;53.89
74921;BME280;63483;47.384;8.860;2024-01-07T03:01:40;93829.81;;;-0.27;54.08
74921;BME280;63483;47.384;8.860;2024-01-07T03:04:07;93838.22;;;-0.25;54.24
74921;BME280;63483;47.384;8.860;2024-01-07T03:06:33;93826.56;;;-0.20;54.06
74921;BME280;63483;47.384;8.860;2024-01-07T03:08:58;93839.44;;;-0.20;54.65
74921;BME280;63483;47.384;8.860;2024-01-07T03:11:23;93827.25;;;-0.18;54.25
74921;BME280;63483;47.384;8.860;2024-01-07T03:13:49;93828.63;;;-0.14;53.93
74921;BME280;63483;47.384;8.860;2024-01-07T03:16:24;93838.63;;;-0.10;54.21
74921;BME280;63483;47.384;8.860;2024-01-07T03:18:50;93835.13;;;-0.09;54.15
74921;BME280;63483;47.384;8.860;2024-01-07T03:21:19;93831.34;;;-0.05;53.67
74921;BME280;63483;47.384;8.860;2024-01-07T03:23:46;93837.44;;;-0.06;53.70
74921;BME280;63483;47.384;8.860;2024-01-07T03:26:12;93835.56;;;-0.04;53.78
74921;BME280;63483;47.384;8.860;2024-01-07T03:28:37;93835.56;;;-0.04;53.47
74921;BME280;63483;47.384;8.860;2024-01-07T03:31:09;93839.88;;;-0.05;53.88
74921;BME280;63483;47.384;8.860;2024-01-07T03:33:35;93844.75;;;-0.02;54.08
74921;BME280;63483;47.384;8.860;2024-01-07T03:36:00;93840.28;;;0.00;53.74
74921;BME280;63483;47.384;8.860;2024-01-07T03:38:25;93842.72;;;0.02;53.94
74921;BME280;63483;47.384;8.860;2024-01-07T03:40:51;93832.44;;;0.02;53.89
74921;BME280;63483;47.384;8.860;2024-01-07T03:43:16;93836.75;;;0.01;53.29
74921;BME280;63483;47.384;8.860;2024-01-07T03:45:41;93841.63;;;0.04;53.58
74921;BME280;63483;47.384;8.860;2024-01-07T03:48:08;93842.19;;;0.08;53.65
74921;BME280;63483;47.384;8.860;2024-01-07T03:50:34;93838.91;;;0.06;53.95
74921;BME280;63483;47.384;8.860;2024-01-07T03:52:59;93842.19;;;0.08;53.59
74921;BME280;63483;47.384;8.860;2024-01-07T03:55:24;93841.38;;;0.08;53.96
74921;BME280;63483;47.384;8.860;2024-01-07T03:57:49;93841.38;;;0.08;53.87
74921;BME280;63483;47.384;8.860;2024-01-07T04:00:15;93841.91;;;0.11;53.50
74921;BME280;63483;47.384;8.860;2024-01-07T04:02:41;93841.91;;;0.11;53.88
74921;BME280;63483;47.384;8.860;2024-01-07T04:05:07;93843.28;;;0.15;53.87
74921;BME280;63483;47.384;8.860;2024-01-07T04:07:33;93850.72;;;0.18;53.75
74921;BME280;63483;47.384;8.860;2024-01-07T04:09:58;93843.28;;;0.15;53.67
74921;BME280;63483;47.384;8.860;2024-01-07T04:12:23;93844.31;;;-0.36;50.36
74921;BME280;63483;47.384;8.860;2024-01-07T04:14:48;93841.56;;;-0.44;51.49
74921;BME280;63483;47.384;8.860;2024-01-07T04:17:14;93841.81;;;-0.47;52.48
74921;BME280;63483;47.384;8.860;2024-01-07T04:19:39;93843.69;;;-0.69;49.14
74921;BME280;63483;47.384;8.860;2024-01-07T04:22:04;93847.66;;;-1.38;48.65
74921;BME280;63483;47.384;8.860;2024-01-07T04:24:30;93845.59;;;-1.65;49.79
74921;BME280;63483;47.384;8.860;2024-01-07T04:26:55;93846.75;;;-1.91;48.80
74921;BME280;63483;47.384;8.860;2024-01-07T04:29:21;93846.41;;;-1.97;48.04
74921;BME280;63483;47.384;8.860;2024-01-07T04:31:46;93849.00;;;-1.76;50.54
74921;BME280;63483;47.384;8.860;2024-01-07T04:34:11;93850.81;;;-1.88;48.01
74921;BME280;63483;47.384;8.860;2024-01-07T04:36:36;93849.00;;;-1.76;49.42
74921;BME280;63483;47.384;8.860;2024-01-07T04:39:02;93852.47;;;-1.66;50.30
74921;BME280;63483;47.384;8.860;2024-01-07T04:41:27;93846.94;;;-1.61;50.66
74921;BME280;63483;47.384;8.860;2024-01-07T04:43:52;93850.22;;;-1.59;50.73
74921;BME280;63483;47.384;8.860;2024-01-07T04:46:18;93847.38;;;-1.35;55.39
74921;BME280;63483;47.384;8.860;2024-01-07T04:48:43;93858.53;;;-1.25;52.22
74921;BME280;63483;47.384;8.860;2024-01-07T04:51:08;93855.72;;;-1.22;52.71
74921;BME280;63483;47.384;8.860;2024-01-07T04:53:33;93855.38;;;-1.07;53.83
74921;BME280;63483;47.384;8.860;2024-01-07T04:55:59;93857.09;;;-0.96;53.08
74921;BME280;63483;47.384;8.860;2024-01-07T04:58:24;93855.50;;;-0.88;52.77
74921;BME280;63483;47.384;8.860;2024-01-07T05:00:50;93856.09;;;-0.74;53.11
74921;BME280;63483;47.384;8.860;2024-01-07T05:03:15;93858.59;;;-0.63;52.82
74921;BME280;63483;47.384;8.860;2024-01-07T05:05:40;93864.00;;;-0.56;52.89
74921;BME280;63483;47.384;8.860;2024-01-07T05:08:06;93863.38;;;-0.48;52.71
74921;BME280;63483;47.384;8.860;2024-01-07T05:10:31;93867.16;;;-0.43;53.24
74921;BME280;63483;47.384;8.860;2024-01-07T05:12:57;93872.91;;;-1.22;58.33
74921;BME280;63483;47.384;8.860;2024-01-07T05:15:22;93863.94;;;-1.70;51.00
74921;BME280;63483;47.384;8.860;2024-01-07T05:17:47;93879.53;;;-2.38;50.34
74921;BME280;63483;47.384;8.860;2024-01-07T05:20:15;93877.94;;;-2.73;50.64
74921;BME280;63483;47.384;8.860;2024-01-07T05:22:40;93877.94;;;-3.07;51.12
74921;BME280;63483;47.384;8.860;2024-01-07T05:25:06;93876.72;;;-3.37;51.00
74921;BME280;63483;47.384;8.860;2024-01-07T05:27:31;93884.16;;;-3.45;51.34
74921;BME280;63483;47.384;8.860;2024-01-07T05:29:56;93887.38;;;-3.54;51.07
74921;BME280;63483;47.384;8.860;2024-01-07T05:32:22;93884.38;;;-3.48;51.11
74921;BME280;63483;47.384;8.860;2024-01-07T05:34:48;93876.94;;;-3.51;50.77
74921;BME280;63483;47.384;8.860;2024-01-07T05:37:13;93892.56;;;-3.43;50.43
74921;BME280;63483;47.384;8.860;2024-01-07T05:39:39;93879.09;;;-3.22;50.85
74921;BME280;63483;47.384;8.860;2024-01-07T05:42:04;93888.38;;;-3.21;48.88
74921;BME280;63483;47.384;8.860;2024-01-07T05:44:29;93893.63;;;-3.23;48.11
74921;BME280;63483;47.384;8.860;2024-01-07T05:46:54;93890.50;;;-3.15;48.61
74921;BME280;63483;47.384;8.860;2024-01-07T05:49:20;93890.50;;;-3.15;47.50
74921;BME280;63483;47.384;8.860;2024-01-07T05:51:45;93884.81;;;-2.96;49.30
74921;BME280;63483;47.384;8.860;2024-01-07T05:54:11;93896.13;;;-2.76;47.77
74921;BME280;63483;47.384;8.860;2024-01-07T05:56:39;93890.44;;;-2.80;45.73
74921;BME280;63483;47.384;8.860;2024-01-07T05:59:08;93892.50;;;-2.62;48.76
74921;BME280;63483;47.384;8.860;2024-01-07T06:01:33;93898.78;;;-2.32;51.83
74921;BME280;63483;47.384;8.860;2024-01-07T06:03:58;93904.16;;;-2.03;56.06
74921;BME280;63483;47.384;8.860;2024-01-07T06:06:24;93891.66;;;-1.85;56.13
74921;BME280;63483;47.384;8.860;2024-01-07T06:08:49;93895.06;;;-1.63;55.61
74921;BME280;63483;47.384;8.860;2024-01-07T06:11:14;93900.44;;;-1.45;55.15
74921;BME280;63483;47.384;8.860;2024-01-07T06:13:44;93906.09;;;-1.30;54.35
74921;BME280;63483;47.384;8.860;2024-01-07T06:16:09;93897.53;;;-1.20;54.33
74921;BME280;63483;47.384;8.860;2024-01-07T06:18:35;93899.09;;;-1.07;55.78
74921;BME280;63483;47.384;8.860;2024-01-07T06:21:00;93902.81;;;-1.00;54.71
74921;BME280;63483;47.384;8.860;2024-01-07T06:23:25;93903.94;;;-0.93;54.68
74921;BME280;63483;47.384;8.860;2024-01-07T06:25:51;93909.22;;;-0.85;54.81
74921;BME280;63483;47.384;8.860;2024-01-07T06:28:16;93914.56;;;-0.76;54.63
74921;BME280;63483;47.384;8.860;2024-01-07T06:30:41;93906.72;;;-0.75;54.35
74921;BME280;63483;47.384;8.860;2024-01-07T06:33:07;93915.44;;;-0.66;55.11
74921;BME280;63483;47.384;8.860;2024-01-07T06:35:32;93915.16;;;-0.63;54.96
74921;BME280;63483;47.384;8.860;2024-01-07T06:37:57;93913.97;;;-0.59;55.09
74921;BME280;63483;47.384;8.860;2024-01-07T06:40:22;93921.16;;;-0.53;54.74
74921;BME280;63483;47.384;8.860;2024-01-07T06:42:48;93926.69;;;-0.57;54.19
74921;BME280;63483;47.384;8.860;2024-01-07T06:45:15;93921.97;;;-0.52;54.55
74921;BME280;63483;47.384;8.860;2024-01-07T06:47:40;93920.22;;;-0.52;54.87
74921;BME280;63483;47.384;8.860;2024-01-07T06:50:06;93924.41;;;-0.51;55.21
74921;BME280;63483;47.384;8.860;2024-01-07T06:52:31;93922.28;;;-0.45;54.57
74921;BME280;63483;47.384;8.860;2024-01-07T06:54:57;93921.97;;;-0.52;54.66
74921;BME280;63483;47.384;8.860;2024-01-07T06:57:22;93929.88;;;-0.44;54.40
74921;BME280;63483;47.384;8.860;2024-01-07T06:59:47;93938.13;;;-0.40;54.43
74921;BME280;63483;47.384;8.860;2024-01-07T07:02:13;93928.41;;;-0.37;54.39
74921;BME280;63483;47.384;8.860;2024-01-07T07:04:38;93939.56;;;-0.57;51.33
74921;BME280;63483;47.384;8.860;2024-01-07T07:07:04;93925.00;;;-0.99;48.82
74921;BME280;63483;47.384;8.860;2024-01-07T07:09:29;93927.66;;;-1.22;44.76
74921;BME280;63483;47.384;8.860;2024-01-07T07:11:54;93933.97;;;-1.26;48.39
74921;BME280;63483;47.384;8.860;2024-01-07T07:14:19;93936.34;;;-1.23;56.94
74921;BME280;63483;47.384;8.860;2024-01-07T07:16:45;93939.09;;;-1.68;53.79
74921;BME280;63483;47.384;8.860;2024-01-07T07:19:11;93939.19;;;-1.58;52.40
74921;BME280;63483;47.384;8.860;2024-01-07T07:21:40;93945.91;;;-1.90;51.86
74921;BME280;63483;47.384;8.860;2024-01-07T07:24:06;93941.97;;;-1.94;52.52
74921;BME280;63483;47.384;8.860;2024-01-07T07:26:31;93946.69;;;-2.33;50.68
74921;BME280;63483;47.384;8.860;2024-01-07T07:28:57;93952.06;;;-2.25;52.11
74921;BME280;63483;47.384;8.860;2024-01-07T07:31:22;93954.16;;;-2.41;50.89
74921;BME280;63483;47.384;8.860;2024-01-07T07:33:47;93953.56;;;-2.33;53.46
74921;BME280;63483;47.384;8.860;2024-01-07T07:36:14;93951.00;;;-2.45;50.34
74921;BME280;63483;47.384;8.860;2024-01-07T07:38:40;93955.88;;;-2.42;49.04
74921;BME280;63483;47.384;8.860;2024-01-07T07:41:07;93955.41;;;-2.35;49.44
74921;BME280;63483;47.384;8.860;2024-01-07T07:43:33;93955.88;;;-2.42;48.09
74921;BME280;63483;47.384;8.860;2024-01-07T07:45:58;93952.97;;;-2.26;50.99
74921;BME280;63483;47.384;8.860;2024-01-07T07:48:24;93952.00;;;-2.02;53.95
74921;BME280;63483;47.384;8.860;2024-01-07T07:50:51;93966.78;;;-1.83;55.72
74921;BME280;63483;47.384;8.860;2024-01-07T07:53:16;93961.50;;;-1.70;55.78
74921;BME280;63483;47.384;8.860;2024-01-07T07:55:41;93964.00;;;-1.47;56.93
74921;BME280;63483;47.384;8.860;2024-01-07T07:58:07;93962.31;;;-1.37;57.54
74921;BME280;63483;47.384;8.860;2024-01-07T08:00:33;93964.91;;;-1.48;57.14
74921;BME280;63483;47.384;8.860;2024-01-07T08:02:58;93971.84;;;-1.28;56.38
74921;BME280;63483;47.384;8.860;2024-01-07T08:05:24;93968.78;;;-1.22;56.95
74921;BME280;63483;47.384;8.860;2024-01-07T08:07:50;93975.22;;;-1.27;57.09
74921;BME280;63483;47.384;8.860;2024-01-07T08:10:15;93973.75;;;-1.09;56.47
74921;BME280;63483;47.384;8.860;2024-01-07T08:12:41;93971.03;;;-0.96;57.07
74921;BME280;63483;47.384;8.860;2024-01-07T08:15:07;93973.97;;;-1.00;56.41
74921;BME280;63483;47.384;8.860;2024-01-07T08:17:32;93974.78;;;-1.00;56.89
74921;BME280;63483;47.384;8.860;2024-01-07T08:19:58;93985.16;;;-1.23;57.09
74921;BME280;63483;47.384;8.860;2024-01-07T08:22:23;93989.41;;;-1.33;54.96
74921;BME280;63483;47.384;8.860;2024-01-07T08:24:48;93971.19;;;-1.41;56.52
74921;BME280;63483;47.384;8.860;2024-01-07T08:27:15;93981.34;;;-1.40;53.74
74921;BME280;63483;47.384;8.860;2024-01-07T08:29:43;93980.84;;;-1.33;55.76
74921;BME280;63483;47.384;8.860;2024-01-07T08:32:09;93989.88;;;-1.72;57.26
74921;BME280;63483;47.384;8.860;2024-01-07T08:34:34;93989.88;;;-1.39;56.58
74921;BME280;63483;47.384;8.860;2024-01-07T08:37:00;93993.34;;;-1.29;56.84
74921;BME280;63483;47.384;8.860;2024-01-07T08:39:25;93986.13;;;-1.35;57.31
74921;BME280;63483;47.384;8.860;2024-01-07T08:41:51;93991.19;;;-1.12;57.03
74921;BME280;63483;47.384;8.860;2024-01-07T08:44:16;93992.06;;;-1.02;56.88
74921;BME280;63483;47.384;8.860;2024-01-07T08:46:41;93995.91;;;-1.29;56.49
74921;BME280;63483;47.384;8.860;2024-01-07T08:49:07;93992.28;;;-1.05;56.26
74921;BME280;63483;47.384;8.860;2024-01-07T08:51:32;93993.84;;;-1.14;56.49
74921;BME280;63483;47.384;8.860;2024-01-07T08:53:57;94001.13;;;-1.19;56.20
74921;BME280;63483;47.384;8.860;2024-01-07T08:56:24;93998.69;;;-1.21;56.05
74921;BME280;63483;47.384;8.860;2024-01-07T08:58:50;93997.22;;;-1.02;56.26
74921;BME280;63483;47.384;8.860;2024-01-07T09:01:15;94002.56;;;-0.94;56.76
74921;BME280;63483;47.384;8.860;2024-01-07T09:03:41;94002.69;;;-1.07;56.21
74921;BME280;63483;47.384;8.860;2024-01-07T09:06:07;94017.56;;;-0.99;56.91
74921;BME280;63483;47.384;8.860;2024-01-07T09:08:33;94017.56;;;-0.99;57.33
74921;BME280;63483;47.384;8.860;2024-01-07T09:10:59;94018.34;;;-0.98;56.86
74921;BME280;63483;47.384;8.860;2024-01-07T09:13:25;94019.06;;;-0.75;56.07
74921;BME280;63483;47.384;8.860;2024-01-07T09:15:51;94026.91;;;-0.56;55.61
74921;BME280;63483;47.384;8.860;2024-01-07T09:18:16;94025.00;;;-0.96;56.83
74921;BME280;63483;47.384;8.860;2024-01-07T09:20:41;94014.66;;;-0.85;56.90
74921;BME280;63483;47.384;8.860;2024-01-07T09:23:06;94028.94;;;-0.92;56.81
74921;BME280;63483;47.384;8.860;2024-01-07T09:25:32;94028.59;;;-0.66;56.33
74921;BME280;63483;47.384;8.860;2024-01-07T09:27:57;94037.75;;;-0.73;56.22
74921;BME280;63483;47.384;8.860;2024-01-07T09:30:23;94039.00;;;-0.89;56.77
74921;BME280;63483;47.384;8.860;2024-01-07T09:32:48;94035.84;;;-0.92;56.75
74921;BME280;63483;47.384;8.860;2024-01-07T09:35:13;94037.78;;;-0.85;56.68
74921;BME280;63483;47.384;8.860;2024-01-07T09:37:39;94037.09;;;-0.44;55.29
74921;BME280;63483;47.384;8.860;2024-01-07T09:40:05;94046.47;;;-0.64;55.70
74921;BME280;63483;47.384;8.860;2024-01-07T09:42:31;94036.13;;;-0.53;55.44
74921;BME280;63483;47.384;8.860;2024-01-07T09:44:57;94040.06;;;-0.49;55.38
74921;BME280;63483;47.384;8.860;2024-01-07T09:47:25;94041.31;;;-0.64;55.82
74921;BME280;63483;47.384;8.860;2024-01-07T09:49:50;94044.66;;;-0.53;55.56
74921;BME280;63483;47.384;8.860;2024-01-07T09:52:15;94038.75;;;-0.64;56.46
74921;BME280;63483;47.384;8.860;2024-01-07T09:54:42;94039.00;;;-0.46;55.71
74921;BME280;63483;47.384;8.860;2024-01-07T09:57:09;94041.59;;;-0.68;55.74
74921;BME280;63483;47.384;8.860;2024-01-07T09:59:35;94035.75;;;-0.48;56.22
74921;BME280;63483;47.384;8.860;2024-01-07T10:02:04;94038.00;;;-0.55;56.03
74921;BME280;63483;47.384;8.860;2024-01-07T10:04:29;94035.72;;;-0.70;56.19
74921;BME280;63483;47.384;8.860;2024-01-07T10:06:56;94042.91;;;-0.73;56.86
74921;BME280;63483;47.384;8.860;2024-01-07T10:09:28;94045.84;;;-0.78;56.15
74921;BME280;63483;47.384;8.860;2024-01-07T10:11:54;94051.53;;;-0.74;56.65
74921;BME280;63483;47.384;8.860;2024-01-07T10:14:19;94048.53;;;-0.79;56.83
74921;BME280;63483;47.384;8.860;2024-01-07T10:16:49;94038.69;;;-0.74;56.35
74921;BME280;63483;47.384;8.860;2024-01-07T10:19:22;94040.06;;;-0.70;56.67
74921;BME280;63483;47.384;8.860;2024-01-07T10:22:01;94037.56;;;-0.60;56.39
74921;BME280;63483;47.384;8.860;2024-01-07T10:24:35;94034.09;;;-0.50;56.17
74921;BME280;63483;47.384;8.860;2024-01-07T10:27:01;94034.72;;;-0.36;54.83
74921;BME280;63483;47.384;8.860;2024-01-07T10:29:30;94029.81;;;-0.81;51.19
74921;BME280;63483;47.384;8.860;2024-01-07T10:31:58;94033.97;;;-0.90;53.90
74921;BME280;63483;47.384;8.860;2024-01-07T10:34:29;94034.72;;;-0.78;55.59
74921;BME280;63483;47.384;8.860;2024-01-07T10:36:56;94041.84;;;-0.71;56.06
74921;BME280;63483;47.384;8.860;2024-01-07T10:39:24;94038.50;;;-0.61;53.51
74921;BME280;63483;47.384;8.860;2024-01-07T10:41:50;94040.44;;;-1.07;55.92
74921;BME280;63483;47.384;8.860;2024-01-07T10:44:15;94036.63;;;-0.80;54.80
74921;BME280;63483;47.384;8.860;2024-01-07T10:46:41;94036.09;;;-0.95;53.07
74921;BME280;63483;47.384;8.860;2024-01-07T10:49:19;94030.97;;;-1.07;53.95
74921;BME280;63483;47.384;8.860;2024-01-07T10:51:45;94027.13;;;-1.01;53.05
74921;BME280;63483;47.384;8.860;2024-01-07T10:54:13;94024.38;;;-0.88;56.06
74921;BME280;63483;47.384;8.860;2024-01-07T10:56:45;94036.88;;;-0.83;55.66
74921;BME280;63483;47.384;8.860;2024-01-07T10:59:13;94026.59;;;-0.83;55.96
74921;BME280;63483;47.384;8.860;2024-01-07T11:01:40;94034.22;;;-0.51;55.31
74921;BME280;63483;47.384;8.860;2024-01-07T11:04:14;94026.16;;;-0.68;54.14
74921;BME280;63483;47.384;8.860;2024-01-07T11:06:48;94041.38;;;-0.76;54.78
74921;BME280;63483;47.384;8.860;2024-01-07T11:09:49;94025.88;;;-0.43;55.57
74921;BME280;63483;47.384;8.860;2024-01-07T11:12:18;94028.34;;;-0.63;55.46
74921;BME280;63483;47.384;8.860;2024-01-07T11:14:44;94026.19;;;-0.58;55.00
74921;BME280;63483;47.384;8.860;2024-01-07T11:17:48;94020.56;;;-0.52;55.33
74921;BME280;63483;47.384;8.860;2024-01-07T11:20:18;94016.03;;;-0.38;54.80
74921;BME280;63483;47.384;8.860;2024-01-07T11:22:45;94014.06;;;-0.46;55.32
74921;BME280;63483;47.384;8.860;2024-01-07T11:25:29;94030.22;;;-0.44;55.04
74921;BME280;63483;47.384;8.860;2024-01-07T11:27:56;94021.88;;;-0.57;58.15
74921;BME280;63483;47.384;8.860;2024-01-07T11:30:22;94018.44;;;-0.89;55.07
74921;BME280;63483;47.384;8.860;2024-01-07T11:32:47;94011.94;;;-1.04;52.96
74921;BME280;63483;47.384;8.860;2024-01-07T11:35:13;94016.63;;;-1.09;56.33
74921;BME280;63483;47.384;8.860;2024-01-07T11:37:38;94012.41;;;-0.99;53.64
74921;BME280;63483;47.384;8.860;2024-01-07T11:40:05;94015.97;;;-0.90;55.52
74921;BME280;63483;47.384;8.860;2024-01-07T11:42:31;94023.19;;;-0.63;55.82
74921;BME280;63483;47.384;8.860;2024-01-07T11:44:57;94016.72;;;-0.99;55.01
74921;BME280;63483;47.384;8.860;2024-01-07T11:47:23;94010.28;;;-0.94;55.13
74921;BME280;63483;47.384;8.860;2024-01-07T11:49:49;94014.59;;;-0.94;53.06
74921;BME280;63483;47.384;8.860;2024-01-07T11:52:15;94020.56;;;-0.94;53.99
74921;BME280;63483;47.384;8.860;2024-01-07T11:54:41;94020.63;;;-0.63;55.64
74921;BME280;63483;47.384;8.860;2024-01-07T11:57:07;94018.84;;;-0.62;55.08
74921;BME280;63483;47.384;8.860;2024-01-07T11:59:33;94022.44;;;-0.54;55.65
74921;BME280;63483;47.384;8.860;2024-01-07T12:02:00;94015.72;;;-0.66;55.86
74921;BME280;63483;47.384;8.860;2024-01-07T12:04:25;94022.56;;;-0.76;56.66
74921;BME280;63483;47.384;8.860;2024-01-07T12:06:51;94017.06;;;-0.93;57.18
74921;BME280;63483;47.384;8.860;2024-01-07T12:09:16;94018.09;;;-0.95;56.81
74921;BME280;63483;47.384;8.860;2024-01-07T12:11:42;94016.56;;;-0.87;56.95
74921;BME280;63483;47.384;8.860;2024-01-07T12:14:09;94021.94;;;-0.90;57.21
74921;BME280;63483;47.384;8.860;2024-01-07T12:16:35;94022.88;;;-0.70;56.40
74921;BME280;63483;47.384;8.860;2024-01-07T12:19:01;94020.50;;;-0.61;56.01
74921;BME280;63483;47.384;8.860;2024-01-07T12:21:26;94024.06;;;-0.95;57.13
74921;BME280;63483;47.384;8.860;2024-01-07T12:23:54;94021.31;;;-0.61;55.80
74921;BME280;63483;47.384;8.860;2024-01-07T12:26:20;94024.84;;;-0.62;56.44
74921;BME280;63483;47.384;8.860;2024-01-07T12:28:52;94014.19;;;-0.47;55.32
74921;BME280;63483;47.384;8.860;2024-01-07T12:31:19;94024.50;;;-0.47;55.55
74921;BME280;63483;47.384;8.860;2024-01-07T12:33:44;94014.28;;;-0.59;55.49
74921;BME280;63483;47.384;8.860;2024-01-07T12:36:09;94020.97;;;-0.46;54.99
74921;BME280;63483;47.384;8.860;2024-01-07T12:38:38;94014.53;;;-0.62;55.81
74921;BME280;63483;47.384;8.860;2024-01-07T12:41:03;94015.97;;;-0.90;56.78
74921;BME280;63483;47.384;8.860;2024-01-07T12:43:29;94021.00;;;-0.68;55.88
74921;BME280;63483;47.384;8.860;2024-01-07T12:45:55;94020.16;;;-0.68;56.52
74921;BME280;63483;47.384;8.860;2024-01-07T12:48:22;94026.69;;;-0.64;56.38
74921;BME280;63483;47.384;8.860;2024-01-07T12:50:48;94020.97;;;-0.46;54.93
74921;BME280;63483;47.384;8.860;2024-01-07T12:53:14;94026.19;;;-0.58;55.59
74921;BME280;63483;47.384;8.860;2024-01-07T12:55:39;94024.22;;;-0.75;55.98
74921;BME280;63483;47.384;8.860;2024-01-07T12:58:05;94023.19;;;-0.63;55.18